Terminal Aerodrome Forecast
Issued by NWS

Home | Current Version | Previous Version | Text Only | Print | Product List | Glossary On
Versions: 1 2 3 4 5 6 7 8 9 10 11 12 13 14
000
FTUS46 KPDT 251140
TAFPSC
TAF
KPSC 251140Z 2512/2612 18012KT P6SM BKN180
     FM251800 21010KT P6SM SCT060 BKN250
     FM252100 24010G18KT P6SM BKN060
     FM260300 21009KT P6SM BKN070
     FM260600 18006KT P6SM BKN070=

USA.gov is the U.S. government's official web portal to all federal, state and local government web resources and services.